createdAt,value
2023-04-12T00:00:37.159Z,3.45
2023-04-12T00:03:07.892Z,11.77
2023-04-12T00:05:38.154Z,16.38
2023-04-12T00:08:06.818Z,4.95
2023-04-12T00:10:34.493Z,6.75
2023-04-12T00:13:02.241Z,6.40
2023-04-12T00:15:30.049Z,6.00
2023-04-12T00:17:57.951Z,8.55
2023-04-12T00:20:26.006Z,10.77
2023-04-12T00:22:57.604Z,6.50
2023-04-12T00:25:25.443Z,11.07
2023-04-12T00:27:53.160Z,4.50
2023-04-12T00:30:21.069Z,6.22
2023-04-12T00:32:48.746Z,4.97
2023-04-12T00:35:16.596Z,6.25
2023-04-12T00:37:44.281Z,6.93
2023-04-12T00:40:14.247Z,8.73
2023-04-12T00:42:41.888Z,8.13
2023-04-12T00:45:10.511Z,7.78
2023-04-12T00:47:38.880Z,4.90
2023-04-12T00:50:09.394Z,11.77
2023-04-12T00:52:37.594Z,6.78
2023-04-12T00:55:07.224Z,6.68
2023-04-12T00:57:37.852Z,5.82
2023-04-12T01:00:08.419Z,5.75
2023-04-12T01:02:39.476Z,10.07
2023-04-12T01:05:14.555Z,6.80
2023-04-12T01:07:54.221Z,6.55
2023-04-12T01:10:34.552Z,8.98
2023-04-12T01:13:15.229Z,6.20
2023-04-12T01:15:50.218Z,4.13
2023-04-12T01:18:23.560Z,8.35
2023-04-12T01:20:57.659Z,9.57
2023-04-12T01:23:44.774Z,11.25
2023-04-12T01:26:28.282Z,7.55
2023-04-12T01:28:58.557Z,7.28
2023-04-12T01:31:28.673Z,14.93
2023-04-12T01:33:59.436Z,7.28
2023-04-12T01:36:29.027Z,5.13
2023-04-12T01:38:57.429Z,4.75
2023-04-12T01:41:25.588Z,6.00
2023-04-12T01:43:53.263Z,4.00
2023-04-12T01:46:24.820Z,4.80
2023-04-12T01:48:54.365Z,6.68
2023-04-12T01:51:35.844Z,7.38
2023-04-12T01:54:11.208Z,8.40
2023-04-12T01:56:42.974Z,9.45
2023-04-12T01:59:15.538Z,5.43
2023-04-12T02:01:45.321Z,5.07
2023-04-12T02:04:14.234Z,5.82
2023-04-12T02:06:43.570Z,9.13
2023-04-12T02:09:11.376Z,6.53
2023-04-12T02:11:39.060Z,4.05
2023-04-12T02:14:07.662Z,6.43
2023-04-12T02:16:35.869Z,9.60
2023-04-12T02:19:08.921Z,9.95
2023-04-12T02:21:42.049Z,4.00
2023-04-12T02:24:10.356Z,7.13
2023-04-12T02:26:38.367Z,5.38
2023-04-12T02:29:07.740Z,7.60
2023-04-12T02:31:35.534Z,9.27
2023-04-12T02:34:03.446Z,5.15
2023-04-12T02:36:32.678Z,5.32
2023-04-12T02:39:00.841Z,9.20
2023-04-12T02:41:28.550Z,6.70
2023-04-12T02:43:56.439Z,9.23
2023-04-12T02:46:27.237Z,7.18
2023-04-12T02:48:55.255Z,9.43
2023-04-12T02:51:22.954Z,6.10
2023-04-12T02:53:52.085Z,4.97
2023-04-12T02:56:19.845Z,8.57
2023-04-12T02:58:47.512Z,8.32
2023-04-12T03:01:15.301Z,5.03
2023-04-12T03:03:43.024Z,6.57
2023-04-12T03:06:10.845Z,7.78
2023-04-12T03:08:39.149Z,7.18
2023-04-12T03:11:08.459Z,14.18
2023-04-12T03:13:36.194Z,6.30
2023-04-12T03:16:21.784Z,6.90
2023-04-12T03:18:50.136Z,11.85
2023-04-12T03:21:17.880Z,16.45
2023-04-12T03:23:45.751Z,6.97
2023-04-12T03:26:14.958Z,7.93
2023-04-12T03:28:42.931Z,9.60
2023-04-12T03:31:12.559Z,8.77
2023-04-12T03:33:40.661Z,5.85
2023-04-12T03:36:09.921Z,7.68
2023-04-12T03:38:37.741Z,8.10
2023-04-12T03:41:05.774Z,4.80
2023-04-12T03:43:36.201Z,9.18
2023-04-12T03:46:04.565Z,7.35
2023-04-12T03:48:32.517Z,7.32
2023-04-12T03:51:00.724Z,5.50
2023-04-12T03:53:28.393Z,6.55
2023-04-12T03:55:56.543Z,8.63
2023-04-12T03:58:24.240Z,5.70
2023-04-12T04:00:53.305Z,9.50
2023-04-12T04:03:27.228Z,11.52
2023-04-12T04:05:55.192Z,10.93
2023-04-12T04:08:22.904Z,7.38
2023-04-12T04:10:50.742Z,6.30
2023-04-12T04:13:18.522Z,8.05
2023-04-12T04:15:46.297Z,10.73
2023-04-12T04:18:15.403Z,11.00
2023-04-12T04:20:43.092Z,9.40
2023-04-12T04:23:11.178Z,7.25
2023-04-12T04:25:39.373Z,8.48
2023-04-12T04:28:07.830Z,8.20
2023-04-12T04:30:38.696Z,8.20
2023-04-12T04:33:07.109Z,7.85
2023-04-12T04:35:40.039Z,11.27
2023-04-12T04:38:07.750Z,8.75
2023-04-12T04:40:38.378Z,8.05
2023-04-12T04:43:08.237Z,7.38
2023-04-12T04:45:36.426Z,5.93
2023-04-12T04:48:04.254Z,7.50
2023-04-12T04:50:32.003Z,9.20
2023-04-12T04:53:01.160Z,6.72
2023-04-12T04:55:30.126Z,5.82
2023-04-12T04:57:58.834Z,8.77
2023-04-12T05:00:26.555Z,7.32
2023-04-12T05:02:54.342Z,7.93
2023-04-12T05:05:23.337Z,11.00
2023-04-12T05:07:51.221Z,6.45
2023-04-12T05:10:20.403Z,8.30
2023-04-12T05:12:48.262Z,8.27
2023-04-12T05:18:00.054Z,6.68
2023-04-12T05:20:44.077Z,6.85
2023-04-12T05:26:20.065Z,5.82
2023-04-12T05:28:47.711Z,7.28
2023-04-12T05:31:15.921Z,6.35
2023-04-12T05:33:44.700Z,6.25
2023-04-12T05:36:12.973Z,7.78
2023-04-12T05:38:40.676Z,6.57
2023-04-12T05:41:08.967Z,5.93
2023-04-12T05:43:39.940Z,7.13
2023-04-12T05:46:10.078Z,6.93
2023-04-12T05:48:38.167Z,7.30
2023-04-12T05:51:06.754Z,6.68
2023-04-12T05:53:34.498Z,7.05
2023-04-12T05:56:02.257Z,5.78
2023-04-12T05:58:30.100Z,5.95
2023-04-12T06:00:59.317Z,11.93
2023-04-12T06:03:30.378Z,8.40
2023-04-12T06:05:58.422Z,9.95
2023-04-12T06:08:29.420Z,6.28
2023-04-12T06:10:57.354Z,8.93
2023-04-12T06:13:25.321Z,9.20
2023-04-12T06:15:53.020Z,8.00
2023-04-12T06:18:22.268Z,5.03
2023-04-12T06:20:49.953Z,11.05
2023-04-12T06:23:19.228Z,8.07
2023-04-12T06:25:48.076Z,5.60
2023-04-12T06:28:16.134Z,4.10
2023-04-12T06:30:43.957Z,5.55
2023-04-12T06:33:11.759Z,5.93
2023-04-12T06:35:40.890Z,5.13
2023-04-12T06:38:08.599Z,5.68
2023-04-12T06:40:36.357Z,7.18
2023-04-12T06:43:04.050Z,6.43
2023-04-12T06:45:32.024Z,6.50
2023-04-12T06:47:59.756Z,12.00
2023-04-12T06:50:27.583Z,11.18
2023-04-12T06:52:56.673Z,8.40
2023-04-12T06:55:24.576Z,4.35
2023-04-12T06:57:52.296Z,6.18
2023-04-12T07:00:20.249Z,8.73
2023-04-12T07:02:48.173Z,8.50
2023-04-12T07:05:16.352Z,6.47
2023-04-12T07:07:44.074Z,6.32
2023-04-12T07:10:13.241Z,5.45
2023-04-12T07:12:41.924Z,7.45
2023-04-12T07:15:10.278Z,4.53
2023-04-12T07:17:38.075Z,8.88
2023-04-12T07:20:07.022Z,11.00
2023-04-12T07:22:34.734Z,6.75
2023-04-12T07:25:02.479Z,5.30
2023-04-12T07:27:31.770Z,4.28
2023-04-12T07:29:59.742Z,12.65
2023-04-12T07:32:28.384Z,4.63
2023-04-12T07:34:56.190Z,3.50
2023-04-12T07:37:23.887Z,3.70
2023-04-12T07:39:51.734Z,6.35
2023-04-12T07:42:19.525Z,3.17
2023-04-12T07:44:48.680Z,7.35
2023-04-12T07:47:16.493Z,5.60
2023-04-12T07:49:44.271Z,3.65
2023-04-12T07:52:12.177Z,5.25
2023-04-12T07:54:40.072Z,2.30
2023-04-12T07:57:08.896Z,3.08
2023-04-12T07:59:36.878Z,3.53
2023-04-12T08:02:06.497Z,3.38
2023-04-12T08:04:34.428Z,4.78
2023-04-12T08:07:02.321Z,2.80
2023-04-12T08:09:30.157Z,3.30
2023-04-12T08:11:58.251Z,7.65
2023-04-12T08:14:26.316Z,10.65
2023-04-12T08:16:54.025Z,6.13
2023-04-12T08:19:23.246Z,2.78
2023-04-12T08:21:51.282Z,2.95
2023-04-12T08:24:19.919Z,4.05
2023-04-12T08:26:47.798Z,4.22
2023-04-12T08:29:15.577Z,3.60
2023-04-12T08:31:43.538Z,5.38
2023-04-12T08:34:11.314Z,2.50
2023-04-12T08:36:40.370Z,3.17
2023-04-12T08:39:08.038Z,4.07
2023-04-12T08:41:37.702Z,2.72
2023-04-12T08:44:06.840Z,3.40
2023-04-12T08:46:37.064Z,4.03
2023-04-12T08:49:04.875Z,5.28
2023-04-12T08:51:36.289Z,4.07
2023-04-12T08:54:06.127Z,3.53
2023-04-12T08:56:33.985Z,3.65
2023-04-12T08:59:02.461Z,4.07
2023-04-12T09:01:30.618Z,3.20
2023-04-12T09:03:59.151Z,2.50
2023-04-12T09:06:27.504Z,4.07
2023-04-12T09:08:56.929Z,6.20
2023-04-12T09:11:28.134Z,4.35
2023-04-12T09:13:57.656Z,3.20
2023-04-12T09:16:36.394Z,4.10
2023-04-12T09:19:04.174Z,4.05
2023-04-12T09:21:32.886Z,8.63
2023-04-12T09:24:05.897Z,4.28
2023-04-12T09:26:35.059Z,3.10
2023-04-12T09:29:03.119Z,5.18
2023-04-12T09:31:31.105Z,4.80
2023-04-12T09:34:08.363Z,3.30
2023-04-12T09:36:39.919Z,7.53
2023-04-12T09:39:08.885Z,4.30
2023-04-12T09:41:38.001Z,6.90
2023-04-12T09:44:05.790Z,3.77
2023-04-12T09:46:34.534Z,7.00
2023-04-12T09:49:03.419Z,7.10
2023-04-12T09:51:32.942Z,5.78
2023-04-12T09:54:02.458Z,4.97
2023-04-12T09:56:32.218Z,6.73
2023-04-12T09:59:04.175Z,2.20
2023-04-12T10:01:36.229Z,5.23
2023-04-12T10:04:07.324Z,6.43
2023-04-12T10:06:35.918Z,5.40
2023-04-12T10:09:05.654Z,7.73
2023-04-12T10:11:34.604Z,9.73
2023-04-12T10:14:04.597Z,5.33
2023-04-12T10:16:35.350Z,7.40
2023-04-12T10:19:04.439Z,5.97
2023-04-12T10:21:32.412Z,3.57
2023-04-12T10:24:00.589Z,3.57
2023-04-12T10:26:28.735Z,5.00
2023-04-12T10:29:25.392Z,3.87
2023-04-12T10:31:53.372Z,11.70
2023-04-12T10:34:28.024Z,2.97
2023-04-12T10:36:56.938Z,5.40
2023-04-12T10:39:42.265Z,3.33
2023-04-12T10:42:25.053Z,5.57
2023-04-12T10:44:58.720Z,2.50
2023-04-12T10:48:01.894Z,3.30
2023-04-12T10:50:31.368Z,3.53
2023-04-12T10:53:27.298Z,3.87
2023-04-12T10:55:55.155Z,3.10
2023-04-12T10:58:58.761Z,3.53
2023-04-12T11:01:29.508Z,18.93
2023-04-12T11:04:18.595Z,5.47
2023-04-12T11:06:58.506Z,4.17
2023-04-12T11:09:29.432Z,7.70
2023-04-12T11:11:59.487Z,4.77
2023-04-12T11:14:31.242Z,2.70
2023-04-12T11:17:26.160Z,3.67
2023-04-12T11:20:01.120Z,5.23
2023-04-12T11:22:30.902Z,4.93
2023-04-12T11:25:00.324Z,2.17
2023-04-12T11:27:30.367Z,3.03
2023-04-12T11:30:00.536Z,2.90
2023-04-12T11:32:31.934Z,2.50
2023-04-12T11:35:00.065Z,2.90
2023-04-12T11:37:28.000Z,2.43
2023-04-12T11:39:58.951Z,3.83
2023-04-12T11:42:29.157Z,2.50
2023-04-12T11:45:02.491Z,3.43
2023-04-12T11:47:36.097Z,3.37
2023-04-12T11:50:03.898Z,1.77
2023-04-12T11:52:33.481Z,1.97
2023-04-12T11:55:15.806Z,3.73
2023-04-12T11:57:43.665Z,5.50
2023-04-12T12:00:12.454Z,4.10
2023-04-12T12:02:49.274Z,6.40
2023-04-12T12:05:29.888Z,8.73
2023-04-12T12:10:41.984Z,2.80
2023-04-12T12:13:15.106Z,2.83
2023-04-12T12:15:46.158Z,1.87
2023-04-12T12:18:15.365Z,5.90
2023-04-12T12:20:43.919Z,2.90
2023-04-12T12:23:11.583Z,3.00
2023-04-12T12:25:39.330Z,1.80
2023-04-12T12:28:13.459Z,3.60
2023-04-12T12:30:41.351Z,1.77
2023-04-12T12:33:09.735Z,3.60
2023-04-12T12:35:38.812Z,1.83
2023-04-12T12:38:08.648Z,1.10
2023-04-12T12:40:36.455Z,2.80
2023-04-12T12:43:06.822Z,3.17
2023-04-12T12:45:35.681Z,1.50
2023-04-12T12:48:05.379Z,3.00
2023-04-12T12:50:34.381Z,2.47
2023-04-12T12:53:06.036Z,3.00
2023-04-12T12:55:33.901Z,1.80
2023-04-12T12:58:08.100Z,4.23
2023-04-12T13:00:36.576Z,1.67
2023-04-12T13:03:05.073Z,3.33
2023-04-12T13:05:33.051Z,2.27
2023-04-12T13:08:00.850Z,2.00
2023-04-12T13:10:30.005Z,2.30
2023-04-12T13:12:58.711Z,5.80
2023-04-12T13:15:27.097Z,2.00
2023-04-12T13:17:55.327Z,3.93
2023-04-12T13:20:23.601Z,3.87
2023-04-12T13:22:51.512Z,2.13
2023-04-12T13:25:20.466Z,2.93
2023-04-12T13:27:50.610Z,2.17
2023-04-12T13:30:19.002Z,7.40
2023-04-12T13:32:47.152Z,3.00
2023-04-12T13:35:15.124Z,1.50
2023-04-12T13:37:42.935Z,7.80
2023-04-12T13:40:11.352Z,2.03
2023-04-12T13:42:39.009Z,6.33
2023-04-12T13:45:11.252Z,8.20
2023-04-12T13:47:39.553Z,1.50
2023-04-12T13:50:08.519Z,2.80
2023-04-12T13:52:36.289Z,1.73
2023-04-12T13:55:07.975Z,1.40
2023-04-12T13:57:35.910Z,4.60
2023-04-12T14:00:03.853Z,1.80
2023-04-12T14:02:33.326Z,2.10
2023-04-12T14:05:01.400Z,2.00
2023-04-12T14:07:29.463Z,2.17
2023-04-12T14:09:57.849Z,2.97
2023-04-12T14:12:26.258Z,1.53
2023-04-12T14:14:54.244Z,1.40
2023-04-12T14:17:21.977Z,3.03
2023-04-12T14:19:51.236Z,3.47
2023-04-12T14:22:18.971Z,3.50
2023-04-12T14:24:46.708Z,2.57
2023-04-12T14:27:17.909Z,3.20
2023-04-12T14:29:46.039Z,1.63
2023-04-12T14:32:13.742Z,1.80
2023-04-12T14:34:43.342Z,2.47
2023-04-12T14:37:12.592Z,2.73
2023-04-12T14:39:40.311Z,1.47
2023-04-12T14:42:08.089Z,1.70
2023-04-12T14:44:35.839Z,2.03
2023-04-12T14:47:03.551Z,3.20
2023-04-12T14:49:33.042Z,2.07
2023-04-12T14:52:01.519Z,1.30
2023-04-12T14:54:30.989Z,2.03
2023-04-12T14:56:58.747Z,2.20
2023-04-12T14:59:28.135Z,5.40
2023-04-12T15:01:56.034Z,6.20
2023-04-12T15:04:24.524Z,4.40
2023-04-12T15:06:52.368Z,3.07
2023-04-12T15:09:21.248Z,1.93
2023-04-12T15:11:55.056Z,2.00
2023-04-12T15:14:24.131Z,1.90
2023-04-12T15:16:51.943Z,2.07
2023-04-12T15:19:23.263Z,2.70
2023-04-12T15:21:52.277Z,2.03
2023-04-12T15:24:20.851Z,1.50
2023-04-12T15:26:50.694Z,4.67
2023-04-12T15:29:22.149Z,2.33
2023-04-12T15:31:50.398Z,1.00
2023-04-12T15:34:18.525Z,4.20
2023-04-12T15:36:46.349Z,2.03
2023-04-12T15:39:15.014Z,2.27
2023-04-12T15:41:43.414Z,2.83
2023-04-12T15:44:13.461Z,6.07
2023-04-12T15:46:43.609Z,2.57
2023-04-12T15:49:12.142Z,1.10
2023-04-12T15:51:39.943Z,2.60
2023-04-12T15:54:07.691Z,1.60
2023-04-12T15:56:37.861Z,1.83
2023-04-12T15:59:05.856Z,1.63
2023-04-12T16:01:35.749Z,3.73
2023-04-12T16:04:05.427Z,1.40
2023-04-12T16:06:35.541Z,1.40
2023-04-12T16:09:04.952Z,2.30
2023-04-12T16:11:33.989Z,1.10
2023-04-12T16:14:01.968Z,1.70
2023-04-12T16:16:29.775Z,2.00
2023-04-12T16:19:00.151Z,1.53
2023-04-12T16:21:30.289Z,2.67
2023-04-12T16:23:58.627Z,1.20
2023-04-12T16:26:27.247Z,6.30
2023-04-12T16:41:47.325Z,2.60
2023-04-12T16:44:18.648Z,1.07
2023-04-12T16:46:47.733Z,4.33
2023-04-12T16:49:17.569Z,2.07
2023-04-12T16:51:47.013Z,1.37
2023-04-12T16:54:16.677Z,1.90
2023-04-12T16:56:47.418Z,1.73
2023-04-12T17:04:37.232Z,1.40
2023-04-12T17:07:06.664Z,3.30
2023-04-12T17:09:34.916Z,1.60
2023-04-12T17:12:02.851Z,2.10
2023-04-12T17:14:34.291Z,1.07
2023-04-12T17:17:04.359Z,1.50
2023-04-12T17:19:33.601Z,3.03
2023-04-12T17:22:01.661Z,2.23
2023-04-12T17:24:29.502Z,1.97
2023-04-12T17:26:57.874Z,2.13
2023-04-12T17:29:31.834Z,1.70
2023-04-12T17:32:04.346Z,2.13
2023-04-12T17:34:38.304Z,1.85
2023-04-12T17:37:08.319Z,2.30
2023-04-12T17:39:43.930Z,4.80
2023-04-12T17:42:12.945Z,2.00
2023-04-12T17:44:43.983Z,1.52
2023-04-12T17:47:15.422Z,2.43
2023-04-12T17:49:44.827Z,2.78
2023-04-12T17:52:17.244Z,6.60
2023-04-12T17:54:45.618Z,2.80
2023-04-12T17:57:40.228Z,9.10
2023-04-12T18:00:11.822Z,7.33
2023-04-12T18:02:41.406Z,2.42
2023-04-12T18:05:09.732Z,5.97
2023-04-12T18:07:39.740Z,4.30
2023-04-12T18:10:08.873Z,2.08
2023-04-12T18:12:38.563Z,3.83
2023-04-12T18:15:10.296Z,2.45
2023-04-12T18:17:39.654Z,1.65
2023-04-12T18:20:11.363Z,2.10
2023-04-12T18:22:39.507Z,2.08
2023-04-12T18:25:11.782Z,2.05
2023-04-12T18:27:39.659Z,1.65
2023-04-12T18:30:11.946Z,1.42
2023-04-12T18:32:39.707Z,2.28
2023-04-12T18:35:09.780Z,1.75
2023-04-12T18:37:38.135Z,2.50
2023-04-12T18:40:08.339Z,1.73
2023-04-12T18:42:36.137Z,2.75
2023-04-12T18:45:04.918Z,2.10
2023-04-12T18:47:32.621Z,2.38
2023-04-12T18:50:00.357Z,1.65
2023-04-12T18:52:29.433Z,1.92
2023-04-12T18:54:57.129Z,1.42
2023-04-12T18:57:24.946Z,2.53
2023-04-12T18:59:52.907Z,2.33
2023-04-12T19:02:20.890Z,1.70
2023-04-12T19:04:48.770Z,2.33
2023-04-12T19:07:16.488Z,2.15
2023-04-12T19:09:46.933Z,1.55
2023-04-12T19:12:14.676Z,2.35
2023-04-12T19:14:42.455Z,1.55
2023-04-12T19:17:10.252Z,1.30
2023-04-12T19:19:37.951Z,1.63
2023-04-12T19:22:05.666Z,1.55
2023-04-12T19:24:33.865Z,1.40
2023-04-12T19:27:03.579Z,1.45
2023-04-12T19:29:31.309Z,1.50
2023-04-12T19:32:00.699Z,1.52
2023-04-12T19:34:28.471Z,1.95
2023-04-12T19:36:56.210Z,2.00
2023-04-12T19:39:26.778Z,1.45
2023-04-12T19:41:54.518Z,2.20
2023-04-12T19:44:24.265Z,1.75
2023-04-12T19:46:52.838Z,1.75
2023-04-12T19:49:22.031Z,1.80
2023-04-12T19:51:50.009Z,1.60
2023-04-12T19:54:18.870Z,2.22
2023-04-12T19:56:47.045Z,2.15
2023-04-12T19:59:15.481Z,3.83
2023-04-12T20:01:48.802Z,2.25
2023-04-12T20:04:17.213Z,2.17
2023-04-12T20:06:45.511Z,1.20
2023-04-12T20:09:14.051Z,2.55
2023-04-12T20:11:42.268Z,2.20
2023-04-12T20:14:12.641Z,6.18
2023-04-12T20:16:42.605Z,1.38
2023-04-12T20:19:12.504Z,1.80
2023-04-12T20:21:40.523Z,3.38
2023-04-12T20:24:09.128Z,2.55
2023-04-12T20:26:37.430Z,2.03
2023-04-12T20:29:05.496Z,1.83
2023-04-12T20:31:33.736Z,2.53
2023-04-12T20:34:01.539Z,2.08
2023-04-12T20:36:31.417Z,1.92
2023-04-12T20:39:01.460Z,1.83
2023-04-12T20:41:29.301Z,1.63
2023-04-12T20:43:57.698Z,2.30
2023-04-12T20:46:26.761Z,2.15
2023-04-12T20:51:23.622Z,1.73
2023-04-12T20:53:52.738Z,1.92
2023-04-12T20:56:20.503Z,2.88
2023-04-12T20:58:49.807Z,1.27
2023-04-12T21:01:18.702Z,1.95
2023-04-12T21:03:46.765Z,1.15
2023-04-12T21:06:14.650Z,1.55
2023-04-12T21:08:43.470Z,1.10
2023-04-12T21:11:12.681Z,1.10
2023-04-12T21:13:40.649Z,1.75
2023-04-12T21:16:09.752Z,1.10
2023-04-12T21:18:37.485Z,1.88
2023-04-12T21:21:06.037Z,1.65
2023-04-12T21:23:34.245Z,2.58
2023-04-12T21:26:04.138Z,1.77
2023-04-12T21:28:33.263Z,1.92
2023-04-12T21:31:01.070Z,0.90
2023-04-12T21:33:28.717Z,1.30
2023-04-12T21:35:56.988Z,1.08
2023-04-12T21:38:25.183Z,1.45
2023-04-12T21:40:57.186Z,1.38
2023-04-12T21:43:24.950Z,0.80
2023-04-12T21:45:54.677Z,0.90
2023-04-12T21:48:22.427Z,0.95
2023-04-12T21:50:50.159Z,1.30
2023-04-12T21:53:17.917Z,1.92
2023-04-12T21:55:45.618Z,1.08
2023-04-12T21:58:13.294Z,1.17
2023-04-12T22:00:41.705Z,0.93
2023-04-12T22:03:11.282Z,2.28
2023-04-12T22:05:39.892Z,1.60
2023-04-12T22:08:08.306Z,1.35
2023-04-12T22:10:36.154Z,1.75
2023-04-12T22:13:04.193Z,1.45
2023-04-12T22:15:32.135Z,2.40
2023-04-12T22:18:00.183Z,0.95
2023-04-12T22:20:29.433Z,1.05
2023-04-12T22:22:57.565Z,1.10
2023-04-12T22:25:25.943Z,1.58
2023-04-12T22:27:57.742Z,1.13
2023-04-12T22:30:25.950Z,1.23
2023-04-12T22:32:53.851Z,2.10
2023-04-12T22:35:24.964Z,1.00
2023-04-12T22:37:54.140Z,1.92
2023-04-12T22:40:21.903Z,1.50
2023-04-12T22:42:49.676Z,1.65
2023-04-12T22:45:18.536Z,2.67
2023-04-12T22:47:46.608Z,2.65
2023-04-12T22:50:15.013Z,1.10
2023-04-12T22:52:43.033Z,3.28
2023-04-12T22:55:13.902Z,1.30
2023-04-12T22:57:42.251Z,1.38
2023-04-12T23:00:15.758Z,1.08
2023-04-12T23:02:44.993Z,5.97
2023-04-12T23:05:13.932Z,1.10
2023-04-12T23:07:43.615Z,1.40
2023-04-12T23:10:13.250Z,1.80
2023-04-12T23:12:41.028Z,2.58
2023-04-12T23:15:10.193Z,1.55
2023-04-12T23:17:37.927Z,1.60
2023-04-12T23:20:09.960Z,1.48
2023-04-12T23:22:56.496Z,2.45
2023-04-12T23:25:38.915Z,1.20
2023-04-12T23:28:09.715Z,1.77
2023-04-12T23:30:37.582Z,1.98
2023-04-12T23:33:05.424Z,1.77
2023-04-12T23:35:36.881Z,4.40
2023-04-12T23:38:05.536Z,1.52
2023-04-12T23:40:34.654Z,1.00
2023-04-12T23:43:02.576Z,1.52
2023-04-12T23:45:30.290Z,1.00
2023-04-12T23:47:58.060Z,1.20
2023-04-12T23:50:25.824Z,1.10
2023-04-12T23:52:53.583Z,2.65
2023-04-12T23:55:21.796Z,1.92
2023-04-12T23:57:50.913Z,2.35
